Time;durP1;ratioP1;P1;durP2;ratioP2;P2;SDS_P1;SDS_P2;PMS_P1;PMS_P2;Temp;Humidity;BMP_temperature;BMP_pressure;BME280_temperature;BME280_humidity;BME280_pressure;Samples;Min_cycle;Max_cycle;Signal;HPM_P1;HPM_P2
2021/12/04 00:00:42;;;;;;;84.05;38.30;;;5.60;99.90;;;;;;5119765;27;20047;-66
2021/12/04 00:03:07;;;;;;;86.68;39.35;;;5.60;99.90;;;;;;5134252;27;20519;-66
2021/12/04 00:05:33;;;;;;;80.40;36.67;;;5.60;99.90;;;;;;5144072;27;20039;-66
2021/12/04 00:07:59;;;;;;;79.32;36.03;;;5.60;99.90;;;;;;5136400;27;20082;-66
2021/12/04 00:10:28;;;;;;;99.43;40.08;;;5.60;99.90;;;;;;5154755;27;20069;-66
2021/12/04 00:12:54;;;;;;;99.47;40.50;;;5.60;99.90;;;;;;5118006;27;20066;-66
2021/12/04 00:15:20;;;;;;;104.00;39.55;;;5.60;99.90;;;;;;5115635;27;20043;-66
2021/12/04 00:17:45;;;;;;;103.53;40.38;;;5.60;99.90;;;;;;5122988;27;20133;-66
2021/12/04 00:20:12;;;;;;;97.72;37.30;;;5.50;99.90;;;;;;5154987;27;20119;-66
2021/12/04 00:22:37;;;;;;;102.90;41.03;;;5.50;99.90;;;;;;5154664;27;20058;-66
2021/12/04 00:25:05;;;;;;;107.53;41.42;;;5.50;99.90;;;;;;5136236;27;20477;-66
2021/12/04 00:27:30;;;;;;;98.95;36.67;;;5.50;99.90;;;;;;5139015;27;20047;-66
2021/12/04 00:29:58;;;;;;;102.55;38.53;;;5.50;99.90;;;;;;5135977;27;20534;-66
2021/12/04 00:43:21;;;;;;;105.43;40.28;;;5.60;99.90;;;;;;5105390;27;20070;-66
2021/12/04 00:49:07;;;;;;;119.07;42.38;;;5.50;99.90;;;;;;5136182;27;20047;-67
2021/12/04 00:49:07;;;;;;;122.00;39.92;;;5.50;99.90;;;;;;5125374;27;20096;-66
2021/12/04 00:49:13;;;;;;;104.18;38.38;;;5.50;99.90;;;;;;5115178;27;20134;-66
2021/12/04 00:51:46;;;;;;;108.55;39.65;;;5.50;99.90;;;;;;5146993;27;20069;-66
2021/12/04 00:54:13;;;;;;;91.53;38.35;;;5.50;99.90;;;;;;5136078;27;20129;-66
2021/12/04 00:56:41;;;;;;;112.28;40.03;;;5.60;99.90;;;;;;5154528;27;20111;-66
2021/12/04 00:59:07;;;;;;;93.30;37.30;;;5.60;99.90;;;;;;5135525;27;20039;-66
2021/12/04 01:01:33;;;;;;;96.50;40.65;;;5.50;99.90;;;;;;5117590;27;20072;-66
2021/12/04 01:03:58;;;;;;;95.10;39.55;;;5.60;99.90;;;;;;5126723;27;20439;-66
2021/12/04 01:06:24;;;;;;;109.50;42.70;;;5.60;99.90;;;;;;5111571;28;20066;-66
2021/12/04 01:08:50;;;;;;;104.13;38.97;;;5.60;99.90;;;;;;5094770;28;20077;-66
2021/12/04 01:11:16;;;;;;;90.32;37.63;;;5.60;99.90;;;;;;5094922;28;20051;-66
2021/12/04 01:13:42;;;;;;;109.80;40.15;;;5.60;99.90;;;;;;5126114;27;20050;-66
2021/12/04 01:16:11;;;;;;;101.88;41.58;;;5.60;99.90;;;;;;5154279;27;20042;-66
2021/12/04 01:18:37;;;;;;;130.07;45.28;;;5.50;99.90;;;;;;5153671;27;20062;-66
2021/12/04 01:21:03;;;;;;;94.55;40.35;;;5.60;99.90;;;;;;5134398;27;20038;-66
2021/12/04 01:23:28;;;;;;;150.40;48.78;;;5.60;99.90;;;;;;5144486;27;20387;-67
2021/12/04 01:25:54;;;;;;;109.50;43.80;;;5.50;99.90;;;;;;5114065;27;20073;-66
2021/12/04 01:28:19;;;;;;;96.88;41.88;;;5.50;99.90;;;;;;5132357;27;20061;-66
2021/12/04 01:30:45;;;;;;;98.05;41.75;;;5.50;99.90;;;;;;5132998;27;20055;-66
2021/12/04 01:33:11;;;;;;;109.68;42.05;;;5.60;99.90;;;;;;5108717;27;20043;-66
2021/12/04 01:35:36;;;;;;;114.60;43.53;;;5.60;99.90;;;;;;5150315;27;20132;-66
2021/12/04 01:38:02;;;;;;;111.47;43.15;;;5.50;99.90;;;;;;5132971;27;20055;-66
2021/12/04 01:40:28;;;;;;;107.68;43.03;;;5.50;99.90;;;;;;5132927;27;20405;-66
2021/12/04 01:42:53;;;;;;;139.43;44.38;;;5.50;99.90;;;;;;5147068;27;20054;-66
2021/12/04 01:45:19;;;;;;;111.25;42.05;;;5.50;99.90;;;;;;5134849;27;20046;-66
2021/12/04 01:47:45;;;;;;;165.88;47.70;;;5.50;99.90;;;;;;5132780;27;20081;-66
2021/12/04 01:50:11;;;;;;;115.53;40.05;;;5.50;99.90;;;;;;5132313;27;20043;-66
2021/12/04 01:52:37;;;;;;;124.03;44.92;;;5.50;99.90;;;;;;5120054;27;20482;-66
2021/12/04 01:55:03;;;;;;;143.60;46.65;;;5.50;99.90;;;;;;5151582;27;20050;-66
2021/12/04 01:57:30;;;;;;;117.90;40.50;;;5.50;99.90;;;;;;5151729;27;20041;-66
2021/12/04 01:59:56;;;;;;;128.23;42.00;;;5.50;99.90;;;;;;5134843;27;20074;-66
2021/12/04 02:02:22;;;;;;;135.20;42.75;;;5.50;99.90;;;;;;5144710;27;20031;-66
2021/12/04 02:04:47;;;;;;;123.07;43.42;;;5.50;99.90;;;;;;5114621;28;20051;-66
2021/12/04 02:07:15;;;;;;;111.60;41.42;;;5.50;99.90;;;;;;5105999;27;20035;-66
2021/12/04 02:09:40;;;;;;;131.57;40.45;;;5.50;99.90;;;;;;5133229;27;20106;-66
2021/12/04 02:12:08;;;;;;;99.72;36.53;;;5.50;99.90;;;;;;5138443;27;20134;-66
2021/12/04 02:14:37;;;;;;;107.63;39.50;;;5.50;99.90;;;;;;5152078;27;20051;-66
2021/12/04 02:17:04;;;;;;;122.95;39.35;;;5.50;99.90;;;;;;5144818;27;20078;-66
2021/12/04 02:19:30;;;;;;;99.82;40.90;;;5.50;99.90;;;;;;5120669;27;20052;-66
2021/12/04 02:21:55;;;;;;;146.15;44.42;;;5.50;99.90;;;;;;5132505;27;20876;-66
2021/12/04 02:24:21;;;;;;;112.20;38.72;;;5.50;99.90;;;;;;5152743;27;20091;-66
2021/12/04 02:26:48;;;;;;;127.35;43.95;;;5.50;99.90;;;;;;5155605;27;20132;-66
2021/12/04 02:29:14;;;;;;;97.70;39.85;;;5.50;99.90;;;;;;5153296;27;20482;-66
2021/12/04 02:31:39;;;;;;;102.13;39.50;;;5.50;99.90;;;;;;5157022;27;20050;-66
2021/12/04 02:34:06;;;;;;;86.45;36.83;;;5.50;99.90;;;;;;5135570;27;20043;-66
2021/12/04 02:36:32;;;;;;;109.68;40.95;;;5.50;99.90;;;;;;5127555;27;20135;-66
2021/12/04 02:38:58;;;;;;;112.82;41.88;;;5.50;99.90;;;;;;5116909;27;20501;-66
2021/12/04 02:41:24;;;;;;;91.57;37.97;;;5.50;99.90;;;;;;5135801;27;20039;-66
2021/12/04 02:43:50;;;;;;;88.93;37.65;;;5.50;99.90;;;;;;5117502;27;20091;-66
2021/12/04 02:46:17;;;;;;;96.07;39.28;;;5.50;99.90;;;;;;5138305;27;20474;-66
2021/12/04 02:48:45;;;;;;;104.57;39.03;;;5.50;99.90;;;;;;5127287;27;20052;-66
2021/12/04 02:51:11;;;;;;;82.47;37.53;;;5.50;99.90;;;;;;5155902;27;20095;-66
2021/12/04 02:53:37;;;;;;;84.18;36.35;;;5.50;99.90;;;;;;5138293;27;20038;-66
2021/12/04 02:56:05;;;;;;;80.15;36.55;;;5.50;99.90;;;;;;5116924;27;20100;-66
2021/12/04 02:58:32;;;;;;;80.93;37.28;;;5.50;99.90;;;;;;5135424;27;20039;-66
2021/12/04 03:00:58;;;;;;;76.53;34.17;;;5.50;99.90;;;;;;5117505;27;20054;-66
2021/12/04 03:03:24;;;;;;;80.30;35.17;;;5.50;99.90;;;;;;5111813;27;20051;-66
2021/12/04 03:05:51;;;;;;;78.10;34.58;;;5.50;99.90;;;;;;5122786;27;20043;-66
2021/12/04 03:08:17;;;;;;;90.63;36.67;;;5.50;99.90;;;;;;5133634;27;20051;-66
2021/12/04 03:10:44;;;;;;;81.28;34.83;;;5.50;99.90;;;;;;5138229;27;20046;-66
2021/12/04 03:13:10;;;;;;;87.53;35.92;;;5.50;99.90;;;;;;5156490;27;20038;-66
2021/12/04 03:15:43;;;;;;;84.30;34.13;;;5.50;99.90;;;;;;5153841;27;20031;-66
2021/12/04 03:18:09;;;;;;;83.95;33.42;;;5.50;99.90;;;;;;5137728;27;20058;-66
2021/12/04 03:20:41;;;;;;;88.80;34.90;;;5.40;99.90;;;;;;5155788;27;20050;-66
2021/12/04 03:23:13;;;;;;;83.18;33.53;;;5.40;99.90;;;;;;5156329;27;20045;-66
2021/12/04 03:25:39;;;;;;;85.97;34.33;;;5.50;99.90;;;;;;5138332;27;20143;-66
2021/12/04 03:28:06;;;;;;;88.85;36.42;;;5.40;99.90;;;;;;5155528;27;20492;-66
2021/12/04 03:40:59;;;;;;;114.13;34.78;;;5.40;99.90;;;;;;5135244;27;20086;-66
2021/12/04 03:43:25;;;;;;;124.85;37.13;;;5.50;99.90;;;;;;5115189;27;20052;-66
2021/12/04 03:45:59;;;;;;;100.93;38.67;;;5.50;99.90;;;;;;5137495;27;20038;-66
2021/12/04 03:50:59;;;;;;;90.40;34.50;;;5.50;99.90;;;;;;5133873;27;20485;-66
2021/12/04 03:53:25;;;;;;;127.18;40.05;;;5.50;99.90;;;;;;5155452;27;20054;-66
2021/12/04 03:55:50;;;;;;;94.93;36.85;;;5.50;99.90;;;;;;5155196;27;20432;-66
2021/12/04 03:58:17;;;;;;;94.68;36.20;;;5.50;99.90;;;;;;5137182;27;20058;-66
2021/12/04 04:00:43;;;;;;;120.13;41.17;;;5.50;99.90;;;;;;5136300;27;20042;-66
2021/12/04 04:03:09;;;;;;;111.03;36.22;;;5.50;99.90;;;;;;5133535;27;20047;-66
2021/12/04 04:05:34;;;;;;;127.70;38.45;;;5.50;99.90;;;;;;5118688;27;20051;-66
2021/12/04 04:08:00;;;;;;;103.60;37.75;;;5.50;99.90;;;;;;5135185;27;20429;-66
2021/12/04 04:10:26;;;;;;;109.63;37.75;;;5.40;99.90;;;;;;5115806;27;20047;-66
2021/12/04 04:12:52;;;;;;;112.60;35.53;;;5.50;99.90;;;;;;5133587;27;20046;-66
2021/12/04 04:15:17;;;;;;;99.93;33.75;;;5.50;99.90;;;;;;5136758;27;20038;-66
2021/12/04 04:17:43;;;;;;;85.95;34.28;;;5.50;99.90;;;;;;5146062;27;20047;-66
2021/12/04 04:20:21;;;;;;;111.45;35.28;;;5.50;99.90;;;;;;5145442;27;20130;-66
2021/12/04 04:22:48;;;;;;;96.15;35.88;;;5.50;99.90;;;;;;5145995;27;20125;-66
2021/12/04 04:25:15;;;;;;;104.93;35.55;;;5.50;99.90;;;;;;5154710;27;20197;-66
2021/12/04 04:27:41;;;;;;;121.70;36.03;;;5.50;99.90;;;;;;5136137;27;20080;-66
2021/12/04 04:30:11;;;;;;;115.70;38.17;;;5.50;99.90;;;;;;5154596;27;20047;-66
2021/12/04 04:32:37;;;;;;;97.55;33.53;;;5.50;99.90;;;;;;5126440;27;20468;-66
2021/12/04 04:35:15;;;;;;;97.38;32.65;;;5.50;99.90;;;;;;5133399;27;20108;-66
2021/12/04 05:12:52;;;;;;;;;;;5.60;99.90;;;;;;5132408;27;20520;-66
2021/12/04 05:20:35;;;;;;;88.95;33.03;;;5.60;99.90;;;;;;5133067;27;20055;-66
2021/12/04 05:23:00;;;;;;;95.93;33.17;;;5.60;99.90;;;;;;5153293;27;20054;-66
2021/12/04 05:25:27;;;;;;;79.47;32.53;;;5.60;99.90;;;;;;5153800;27;20027;-66
2021/12/04 05:27:53;;;;;;;139.27;38.88;;;5.60;99.90;;;;;;5153344;27;20140;-66
2021/12/04 05:30:19;;;;;;;79.45;31.27;;;5.60;99.90;;;;;;5151180;27;20479;-66
2021/12/04 05:32:44;;;;;;;67.85;31.10;;;5.60;99.90;;;;;;5134586;27;20046;-66
2021/12/04 05:35:10;;;;;;;73.45;29.52;;;5.60;99.90;;;;;;5135045;27;20157;-66
2021/12/04 05:37:35;;;;;;;93.05;31.63;;;5.60;99.90;;;;;;5135302;27;20058;-66
2021/12/04 05:40:01;;;;;;;125.45;36.58;;;5.60;99.90;;;;;;5131881;27;20039;-67
2021/12/04 05:42:26;;;;;;;75.60;30.20;;;5.60;99.90;;;;;;5153086;27;20027;-66
2021/12/04 05:44:53;;;;;;;90.38;31.75;;;5.60;99.90;;;;;;5134706;27;20042;-66
2021/12/04 05:47:32;;;;;;;93.13;33.13;;;5.60;99.90;;;;;;5134487;27;20043;-66
2021/12/04 05:57:38;;;;;;;118.70;35.38;;;5.50;99.90;;;;;;5107964;27;20046;-67
2021/12/04 06:00:11;;;;;;;140.68;37.65;;;5.50;99.90;;;;;;5153328;27;20050;-66
2021/12/04 06:02:36;;;;;;;82.32;32.38;;;5.60;99.90;;;;;;5152789;27;20392;-66
2021/12/04 06:05:02;;;;;;;95.93;31.15;;;5.60;99.90;;;;;;5127920;28;20047;-66
2021/12/04 06:07:28;;;;;;;122.43;35.38;;;5.60;99.90;;;;;;5148840;27;20049;-66
2021/12/04 06:09:54;;;;;;;92.72;31.80;;;5.60;99.90;;;;;;5152612;27;20066;-66
2021/12/04 06:12:20;;;;;;;79.05;27.95;;;5.60;99.90;;;;;;5125060;27;20047;-66
2021/12/04 06:14:48;;;;;;;167.50;35.45;;;5.60;99.90;;;;;;5131873;27;20432;-66
2021/12/04 06:17:14;;;;;;;106.82;31.05;;;5.60;99.90;;;;;;5132203;28;20433;-66
2021/12/04 06:22:43;;;;;;;90.97;30.10;;;5.60;99.90;;;;;;5134864;27;20047;-66
2021/12/04 06:25:12;;;;;;;124.97;31.58;;;5.60;99.90;;;;;;5128836;27;20046;-66
2021/12/04 06:27:38;;;;;;;83.60;29.50;;;5.60;99.90;;;;;;5133873;27;20047;-66
2021/12/04 06:30:07;;;;;;;86.55;28.80;;;5.60;99.90;;;;;;5127474;27;20054;-66
2021/12/04 06:32:36;;;;;;;103.22;33.05;;;5.60;99.90;;;;;;5141353;27;20035;-67
2021/12/04 06:35:02;;;;;;;116.50;34.72;;;5.60;99.90;;;;;;5153209;27;20055;-66
2021/12/04 06:37:27;;;;;;;157.38;33.92;;;5.60;99.90;;;;;;5113970;27;20547;-66
2021/12/04 06:39:53;;;;;;;136.68;33.50;;;5.60;99.90;;;;;;5152676;27;20055;-66
2021/12/04 06:42:19;;;;;;;159.50;34.92;;;5.60;99.90;;;;;;5153150;27;20046;-66
2021/12/04 06:44:44;;;;;;;118.70;31.85;;;5.60;99.90;;;;;;5152748;27;20046;-66
2021/12/04 06:47:10;;;;;;;99.25;31.10;;;5.60;99.90;;;;;;5132193;27;20041;-66
2021/12/04 06:49:41;;;;;;;133.45;35.75;;;5.60;99.90;;;;;;5140058;27;20061;-66
2021/12/04 06:52:12;;;;;;;101.30;30.58;;;5.60;99.90;;;;;;5131782;28;20485;-66
2021/12/04 06:54:41;;;;;;;100.80;34.50;;;5.60;99.90;;;;;;5114863;27;20058;-66
2021/12/04 06:57:11;;;;;;;90.80;29.92;;;5.60;99.90;;;;;;5115068;27;20051;-66
2021/12/04 06:59:39;;;;;;;98.53;30.83;;;5.60;99.90;;;;;;5136167;27;20110;-67
2021/12/04 07:02:04;;;;;;;107.40;30.98;;;5.60;99.90;;;;;;5122099;27;20054;-66
2021/12/04 07:04:34;;;;;;;135.07;32.88;;;5.60;99.90;;;;;;5156333;27;20381;-66
2021/12/04 07:07:01;;;;;;;130.15;34.95;;;5.60;99.90;;;;;;5157437;27;20137;-66
2021/12/04 07:09:27;;;;;;;108.78;30.42;;;5.60;99.90;;;;;;5136819;27;20047;-66
2021/12/04 07:11:53;;;;;;;91.70;30.48;;;5.60;99.90;;;;;;5121618;27;20390;-67
2021/12/04 07:14:18;;;;;;;108.25;32.25;;;5.60;99.90;;;;;;5137734;27;20129;-66
2021/12/04 07:16:45;;;;;;;85.28;28.40;;;5.60;99.90;;;;;;5137800;27;20047;-66
2021/12/04 07:19:10;;;;;;;108.30;28.45;;;5.60;99.90;;;;;;5155986;27;20129;-66
2021/12/04 07:21:36;;;;;;;152.30;34.83;;;5.60;99.90;;;;;;5154291;27;20129;-66
2021/12/04 07:24:02;;;;;;;114.63;32.10;;;5.60;99.90;;;;;;5130742;27;20082;-66
2021/12/04 07:26:28;;;;;;;74.45;28.02;;;5.60;99.90;;;;;;5130122;27;20032;-66
2021/12/04 07:28:54;;;;;;;105.75;29.88;;;5.60;99.90;;;;;;5145255;27;20050;-66
2021/12/04 07:31:19;;;;;;;112.40;28.95;;;5.60;99.90;;;;;;5156110;27;20461;-66
2021/12/04 07:33:45;;;;;;;114.80;34.40;;;5.60;99.90;;;;;;5136656;27;20043;-66
2021/12/04 07:36:11;;;;;;;76.40;27.52;;;5.60;99.90;;;;;;5147890;27;20035;-66
2021/12/04 07:38:36;;;;;;;119.78;31.50;;;5.60;99.90;;;;;;5135722;27;20060;-66
2021/12/04 07:41:03;;;;;;;113.18;32.42;;;5.60;99.90;;;;;;5116658;27;20047;-66
2021/12/04 07:43:29;;;;;;;94.10;31.17;;;5.60;99.90;;;;;;5131068;27;20042;-66
2021/12/04 07:45:54;;;;;;;103.65;31.25;;;5.60;99.90;;;;;;5155842;27;20054;-66
2021/12/04 07:48:20;;;;;;;144.48;34.92;;;5.60;99.90;;;;;;5134248;27;20043;-66
2021/12/04 07:50:46;;;;;;;96.93;27.42;;;5.60;99.90;;;;;;5138774;27;20127;-66
2021/12/04 07:53:11;;;;;;;107.80;32.42;;;5.60;99.90;;;;;;5155910;27;20081;-66
2021/12/04 07:55:37;;;;;;;113.63;29.10;;;5.60;99.90;;;;;;5137378;27;20051;-67
2021/12/04 07:58:03;;;;;;;95.32;30.00;;;5.60;99.90;;;;;;5130822;27;20038;-66
2021/12/04 08:00:29;;;;;;;77.85;27.75;;;5.60;99.90;;;;;;5155324;27;20038;-66
2021/12/04 08:02:55;;;;;;;67.45;28.55;;;5.60;99.90;;;;;;5119022;27;20039;-66
2021/12/04 08:05:20;;;;;;;90.75;28.90;;;5.60;99.90;;;;;;5134524;27;20053;-66
2021/12/04 08:07:46;;;;;;;92.90;30.38;;;5.60;99.90;;;;;;5115392;27;20051;-66
2021/12/04 08:10:15;;;;;;;105.10;29.10;;;5.60;99.90;;;;;;5124855;27;20436;-66
2021/12/04 08:12:41;;;;;;;76.97;29.00;;;5.60;99.90;;;;;;5134538;27;20051;-66
2021/12/04 08:15:09;;;;;;;119.65;33.25;;;5.60;99.90;;;;;;5149327;27;20043;-66
2021/12/04 08:17:34;;;;;;;96.80;29.80;;;5.60;99.90;;;;;;5134212;27;20076;-66
2021/12/04 08:20:00;;;;;;;98.75;31.55;;;5.60;99.90;;;;;;5153116;27;20035;-66
2021/12/04 08:22:26;;;;;;;66.88;26.83;;;5.60;99.90;;;;;;5116750;27;20376;-66
2021/12/04 08:24:51;;;;;;;85.97;30.45;;;5.60;99.90;;;;;;5107745;28;20052;-66
2021/12/04 08:27:17;;;;;;;89.90;29.27;;;5.60;99.90;;;;;;5113208;28;20055;-66
2021/12/04 08:29:43;;;;;;;76.60;27.98;;;5.60;99.90;;;;;;5113346;28;20047;-66
2021/12/04 08:32:10;;;;;;;75.57;27.33;;;5.60;99.90;;;;;;5130317;27;20050;-66
2021/12/04 08:34:36;;;;;;;95.68;29.00;;;5.60;99.90;;;;;;5125707;27;20364;-66
2021/12/04 08:37:03;;;;;;;98.82;29.95;;;5.60;99.90;;;;;;5112155;27;20047;-66
2021/12/04 08:39:29;;;;;;;74.30;29.77;;;5.60;99.90;;;;;;5132377;27;20042;-66
2021/12/04 08:41:54;;;;;;;104.90;29.63;;;5.60;99.90;;;;;;5119988;27;20542;-66
2021/12/04 08:44:20;;;;;;;78.65;28.08;;;5.60;99.90;;;;;;5154119;27;20054;-66
2021/12/04 08:46:47;;;;;;;72.15;27.50;;;5.60;99.90;;;;;;5149062;27;20074;-67
2021/12/04 08:49:12;;;;;;;68.88;27.20;;;5.60;99.90;;;;;;5149213;27;20129;-66
2021/12/04 08:51:39;;;;;;;69.30;28.73;;;5.60;99.90;;;;;;5153792;27;20119;-66
2021/12/04 08:54:05;;;;;;;97.50;30.75;;;5.60;99.90;;;;;;5141248;27;20065;-66
2021/12/04 08:56:33;;;;;;;83.25;27.83;;;5.60;99.90;;;;;;5110375;27;20409;-66
2021/12/04 08:58:58;;;;;;;64.93;25.75;;;5.60;99.90;;;;;;5154335;27;20050;-66
2021/12/04 09:01:29;;;;;;;72.15;28.15;;;5.60;99.90;;;;;;5135258;27;20054;-66
2021/12/04 09:04:09;;;;;;;67.38;26.17;;;5.70;99.90;;;;;;5119598;27;20061;-66
2021/12/04 09:06:36;;;;;;;76.55;28.08;;;5.70;99.90;;;;;;5135655;27;20061;-66
2021/12/04 09:09:05;;;;;;;71.97;28.80;;;5.60;99.90;;;;;;5135524;27;20435;-66
2021/12/04 09:11:45;;;;;;;66.85;25.25;;;5.70;99.90;;;;;;5153995;27;20039;-66
2021/12/04 09:14:12;;;;;;;72.57;26.02;;;5.70;99.90;;;;;;5142967;27;20055;-66
2021/12/04 09:16:38;;;;;;;58.20;25.08;;;5.60;99.90;;;;;;5139942;27;20126;-66
2021/12/04 09:19:04;;;;;;;81.78;28.33;;;5.70;99.90;;;;;;5132525;27;20043;-66
2021/12/04 09:21:30;;;;;;;65.95;26.25;;;5.70;99.90;;;;;;5132797;27;20045;-66
2021/12/04 09:24:10;;;;;;;56.35;26.23;;;5.70;99.90;;;;;;5153470;27;20047;-66
2021/12/04 09:29:42;;;;;;;71.93;28.40;;;5.60;99.90;;;;;;5150067;27;20077;-66
2021/12/04 09:32:29;;;;;;;53.63;25.02;;;5.70;99.90;;;;;;5135035;27;20042;-66
2021/12/04 10:02:13;;;;;;;59.75;23.13;;;5.70;99.90;;;;;;5134597;27;20055;-66
2021/12/04 10:11:25;;;;;;;59.65;24.83;;;5.60;99.90;;;;;;5134233;27;20509;-66
2021/12/04 10:16:31;;;;;;;52.83;23.75;;;5.70;99.90;;;;;;5093502;27;20047;-66
2021/12/04 10:19:18;;;;;;;56.70;22.45;;;5.60;99.90;;;;;;5152603;27;20035;-66
2021/12/04 10:24:51;;;;;;;55.50;24.05;;;5.70;99.90;;;;;;5086629;27;20061;-66
2021/12/04 10:32:45;;;;;;;61.67;25.00;;;5.70;99.90;;;;;;5121422;27;20058;-67
2021/12/04 10:35:17;;;;;;;61.60;23.63;;;5.70;99.90;;;;;;5156570;27;20042;-66
2021/12/04 10:37:46;;;;;;;49.05;23.27;;;5.60;99.90;;;;;;5115970;28;20082;-66
2021/12/04 10:40:12;;;;;;;56.25;24.55;;;5.70;99.90;;;;;;5097329;28;20083;-66
2021/12/04 10:42:49;;;;;;;58.75;23.58;;;5.70;99.90;;;;;;5120969;27;20613;-66
2021/12/04 10:45:15;;;;;;;59.42;23.50;;;5.70;99.90;;;;;;5156464;27;20074;-66
2021/12/04 10:47:55;;;;;;;47.88;21.65;;;5.70;99.90;;;;;;5154919;27;20097;-66
2021/12/04 10:53:03;;;;;;;53.78;24.00;;;5.70;99.90;;;;;;5117578;27;20043;-66
2021/12/04 11:03:40;;;;;;;48.30;21.60;;;5.70;99.90;;;;;;5135824;27;20122;-66
2021/12/04 11:23:57;;;;;;;51.05;22.15;;;5.70;99.90;;;;;;5137710;27;20054;-66
2021/12/04 11:35:04;;;;;;;47.35;21.35;;;5.70;99.90;;;;;;5134562;27;20054;-66
2021/12/04 11:35:32;;;;;;;51.72;21.98;;;5.70;99.90;;;;;;5118003;27;20066;-66
2021/12/04 11:40:59;;;;;;;52.92;24.45;;;5.70;99.90;;;;;;5135053;27;20047;-66
2021/12/04 11:43:32;;;;;;;52.35;21.80;;;5.70;99.90;;;;;;5155604;27;20057;-66
2021/12/04 11:46:13;;;;;;;62.88;24.38;;;5.70;99.90;;;;;;5147108;27;20600;-66
2021/12/04 11:48:40;;;;;;;53.90;23.10;;;5.80;99.90;;;;;;5131386;27;20046;-66
2021/12/04 11:51:20;;;;;;;46.30;23.63;;;5.70;99.90;;;;;;5133554;27;20083;-66
2021/12/04 11:53:46;;;;;;;56.88;25.13;;;5.70;99.90;;;;;;5136329;27;20081;-66
2021/12/04 11:56:15;;;;;;;55.03;22.65;;;5.80;99.90;;;;;;5136485;27;20129;-66
2021/12/04 11:58:43;;;;;;;43.10;22.48;;;5.70;99.90;;;;;;5155727;27;20075;-67
2021/12/04 12:01:27;;;;;;;50.03;23.20;;;5.70;99.90;;;;;;5143116;27;20054;-66
2021/12/04 12:03:56;;;;;;;60.75;23.85;;;5.80;99.90;;;;;;5133610;27;20054;-66
2021/12/04 12:06:48;;;;;;;61.38;24.98;;;5.70;99.90;;;;;;5134661;27;20113;-67
2021/12/04 12:09:26;;;;;;;59.83;25.90;;;5.80;99.90;;;;;;5147743;27;20054;-66
2021/12/04 12:12:01;;;;;;;55.55;24.45;;;5.80;99.90;;;;;;5110440;27;20119;-66
2021/12/04 12:14:40;;;;;;;56.15;23.55;;;5.80;99.90;;;;;;5115022;27;20047;-66
2021/12/04 12:17:07;;;;;;;56.15;22.95;;;5.80;99.90;;;;;;5145566;27;20081;-66
2021/12/04 12:19:39;;;;;;;58.72;23.48;;;5.80;99.90;;;;;;5155058;27;20482;-66
2021/12/04 12:38:16;;;;;;;66.22;24.88;;;5.80;99.90;;;;;;5111246;27;20082;-66
2021/12/04 12:40:42;;;;;;;58.47;25.48;;;5.80;99.90;;;;;;5115570;27;20047;-66
2021/12/04 12:43:19;;;;;;;75.68;27.25;;;5.80;99.90;;;;;;5112732;27;20039;-66
2021/12/04 12:45:57;;;;;;;60.95;26.77;;;5.80;99.90;;;;;;5115478;27;20047;-67
2021/12/04 12:48:25;;;;;;;62.25;25.58;;;5.80;99.90;;;;;;5133756;27;20062;-66
2021/12/04 12:50:53;;;;;;;48.65;24.25;;;5.80;99.90;;;;;;5133224;27;20047;-66
2021/12/04 12:53:27;;;;;;;54.13;23.80;;;5.80;99.90;;;;;;5132724;27;20039;-66
2021/12/04 12:56:04;;;;;;;;;;;5.80;99.90;;;;;;5115063;27;20051;-67
2021/12/04 12:58:39;;;;;;;41.38;20.85;;;5.90;99.90;;;;;;5132163;27;19924;-66
2021/12/04 13:12:50;;;;;;;44.80;22.50;;;5.90;99.90;;;;;;5132069;27;20083;-66
2021/12/04 13:15:34;;;;;;;43.53;21.05;;;5.90;99.90;;;;;;5114556;27;20053;-66
2021/12/04 13:18:16;;;;;;;47.30;22.50;;;6.00;99.90;;;;;;5143625;27;20035;-67
2021/12/04 13:20:43;;;;;;;44.00;20.75;;;6.00;99.90;;;;;;5153997;27;20039;-66
2021/12/04 13:23:15;;;;;;;44.72;21.73;;;6.00;99.90;;;;;;5154240;27;20043;-66
2021/12/04 13:26:09;;;;;;;42.13;20.95;;;6.00;99.90;;;;;;5148160;27;20130;-66
2021/12/04 13:28:37;;;;;;;37.92;19.85;;;6.00;99.90;;;;;;5148809;27;20050;-66
2021/12/04 13:31:04;;;;;;;44.78;21.63;;;6.00;99.90;;;;;;5132439;27;20050;-66
2021/12/04 13:33:33;;;;;;;47.70;21.05;;;6.00;99.90;;;;;;5147238;27;20047;-67
2021/12/04 13:35:59;;;;;;;38.80;20.75;;;6.00;99.90;;;;;;5133025;27;20050;-66
2021/12/04 13:38:27;;;;;;;42.88;21.55;;;6.00;99.90;;;;;;5112355;27;20039;-66
2021/12/04 13:40:54;;;;;;;40.20;20.25;;;6.00;99.90;;;;;;5110782;28;20051;-67
2021/12/04 13:43:22;;;;;;;43.63;21.98;;;6.00;99.90;;;;;;5112666;28;20044;-66
2021/12/04 13:45:57;;;;;;;47.08;21.95;;;6.00;99.90;;;;;;5146723;27;20394;-66
2021/12/04 13:48:24;;;;;;;45.67;21.60;;;6.00;99.90;;;;;;5151211;27;20046;-67
2021/12/04 13:50:50;;;;;;;43.47;20.63;;;6.00;99.90;;;;;;5112501;27;20074;-66
2021/12/04 13:53:20;;;;;;;47.90;22.15;;;6.00;99.90;;;;;;5132336;27;20074;-66
2021/12/04 13:55:53;;;;;;;42.92;20.65;;;6.00;99.90;;;;;;5132386;27;20051;-66
2021/12/04 13:58:19;;;;;;;45.53;22.87;;;6.00;99.90;;;;;;5111407;27;20130;-66
2021/12/04 14:00:45;;;;;;;44.75;21.42;;;6.00;99.90;;;;;;5153082;27;20054;-66
2021/12/04 14:03:12;;;;;;;46.20;19.88;;;6.00;99.90;;;;;;5148913;27;20042;-66
2021/12/04 14:05:37;;;;;;;49.08;23.35;;;6.00;99.90;;;;;;5152848;27;20045;-66
2021/12/04 14:08:05;;;;;;;44.80;23.48;;;6.00;99.90;;;;;;5133971;27;20129;-66
2021/12/04 14:10:34;;;;;;;43.60;22.08;;;6.00;99.90;;;;;;5132141;27;20510;-66
2021/12/04 14:13:03;;;;;;;40.05;21.55;;;6.00;99.90;;;;;;5153231;27;20233;-66
2021/12/04 14:15:29;;;;;;;47.38;21.83;;;6.00;99.90;;;;;;5153578;27;20393;-66
2021/12/04 14:18:07;;;;;;;41.88;21.27;;;6.00;99.90;;;;;;5131969;27;20039;-66
2021/12/04 14:20:35;;;;;;;35.40;18.65;;;6.00;99.90;;;;;;5149994;27;20082;-66
2021/12/04 14:23:01;;;;;;;40.17;22.58;;;6.00;99.90;;;;;;5153030;27;20087;-66
2021/12/04 14:25:28;;;;;;;45.35;20.55;;;6.00;99.90;;;;;;5153494;27;20051;-66
2021/12/04 14:27:55;;;;;;;41.63;19.50;;;6.00;99.90;;;;;;5152307;27;20066;-66
2021/12/04 14:30:25;;;;;;;46.50;21.25;;;6.00;99.90;;;;;;5138528;27;20079;-66
2021/12/04 14:32:55;;;;;;;47.97;23.10;;;6.00;99.90;;;;;;5150986;27;20050;-66
2021/12/04 14:35:23;;;;;;;42.65;19.98;;;5.90;99.90;;;;;;5149126;27;20049;-66
2021/12/04 14:37:52;;;;;;;50.40;23.20;;;5.90;99.90;;;;;;5128927;27;20490;-66
2021/12/04 14:40:30;;;;;;;50.72;22.30;;;5.90;99.90;;;;;;5130281;27;20151;-66
2021/12/04 14:42:55;;;;;;;50.20;23.23;;;5.90;99.90;;;;;;5146571;27;20043;-66
2021/12/04 14:45:25;;;;;;;47.65;22.08;;;5.90;99.90;;;;;;5143402;27;20055;-66
2021/12/04 14:48:05;;;;;;;58.60;25.25;;;5.90;99.90;;;;;;5113784;28;20432;-66
2021/12/04 14:50:32;;;;;;;57.65;24.17;;;5.90;99.90;;;;;;5131227;27;20069;-66
2021/12/04 14:53:01;;;;;;;47.35;22.88;;;5.90;99.90;;;;;;5152273;27;20043;-66
2021/12/04 14:55:30;;;;;;;46.03;22.38;;;5.90;99.90;;;;;;5139713;27;20134;-66
2021/12/04 14:57:57;;;;;;;60.00;25.17;;;5.90;99.90;;;;;;5113373;28;20047;-66
2021/12/04 15:00:27;;;;;;;45.85;22.23;;;5.90;99.90;;;;;;5113985;28;20047;-67
2021/12/04 15:02:59;;;;;;;54.40;24.67;;;5.90;99.90;;;;;;5145211;27;20038;-66
2021/12/04 15:05:40;;;;;;;54.45;23.08;;;5.90;99.90;;;;;;5152998;27;20130;-66
2021/12/04 15:08:11;;;;;;;51.00;22.63;;;5.90;99.90;;;;;;5134606;27;20042;-66
2021/12/04 15:10:38;;;;;;;52.33;23.30;;;5.90;99.90;;;;;;5145278;27;20047;-66
2021/12/04 15:13:06;;;;;;;48.55;21.65;;;5.90;99.90;;;;;;5152695;27;20074;-67
2021/12/04 15:15:35;;;;;;;52.25;25.30;;;5.90;99.90;;;;;;5154613;27;20083;-66
2021/12/04 15:18:09;;;;;;;53.83;22.33;;;5.90;99.90;;;;;;5156182;27;20050;-66
2021/12/04 15:20:38;;;;;;;52.33;22.70;;;5.90;99.90;;;;;;5140297;27;20475;-66
2021/12/04 15:23:08;;;;;;;46.42;21.60;;;5.90;99.90;;;;;;5135760;27;20133;-66
2021/12/04 15:25:36;;;;;;;52.83;23.67;;;5.90;99.90;;;;;;5135565;27;20138;-66
2021/12/04 15:28:17;;;;;;;48.45;22.08;;;5.90;99.90;;;;;;5135178;27;20055;-66
2021/12/04 15:30:52;;;;;;;58.92;24.73;;;5.90;99.90;;;;;;5135520;27;20068;-66
2021/12/04 15:33:46;;;;;;;54.92;23.27;;;5.90;99.90;;;;;;5137652;27;20055;-66
2021/12/04 15:36:35;;;;;;;54.90;24.20;;;6.00;99.90;;;;;;5147407;27;20081;-66
2021/12/04 15:39:07;;;;;;;68.88;25.30;;;6.00;99.90;;;;;;5138524;27;20130;-66
2021/12/04 15:42:08;;;;;;;61.05;25.58;;;5.90;99.90;;;;;;5135197;27;20095;-66
2021/12/04 15:48:02;;;;;;;73.50;27.02;;;5.90;99.90;;;;;;5149409;27;20046;-66
2021/12/04 15:53:07;;;;;;;61.88;24.27;;;6.00;99.90;;;;;;5123969;27;20051;-66
2021/12/04 15:55:43;;;;;;;62.17;26.05;;;6.00;99.90;;;;;;5116666;27;20095;-66